Time,TemperatureF,DewpointF,PressureIn,WindDirection,WindDirectionDegrees,WindSpeedMPH,WindSpeedGustMPH,Humidity,HourlyPrecipIn,Conditions,Clouds,dailyrainin,SoftwareType,DateUTC
2013-02-03 00:02:00,14.1,12.2,29.98,West,271,0.0,0.0,92,0.00,,,0.00,Wunderground v.1.15,2013-02-03 05:02:00,
2013-02-03 00:06:00,14.2,12.3,29.98,West,271,0.0,0.0,92,0.00,,,0.00,Wunderground v.1.15,2013-02-03 05:06:00,
2013-02-03 00:12:00,14.1,12.2,29.98,West,271,0.0,0.0,92,0.00,,,0.00,Wunderground v.1.15,2013-02-03 05:12:00,
2013-02-03 00:14:00,14.1,12.2,29.98,West,271,0.0,0.0,92,0.00,,,0.00,Wunderground v.1.15,2013-02-03 05:14:00,
2013-02-03 00:18:00,14.0,12.1,29.98,West,271,0.0,0.0,92,0.00,,,0.00,Wunderground v.1.15,2013-02-03 05:18:00,
2013-02-03 00:24:00,13.9,12.0,29.97,West,271,0.0,0.0,92,0.00,,,0.00,Wunderground v.1.15,2013-02-03 05:24:00,
2013-02-03 00:30:00,13.6,11.7,29.97,West,271,0.0,0.0,92,0.00,,,0.00,Wunderground v.1.15,2013-02-03 05:30:00,
2013-02-03 00:36:00,13.6,11.7,29.97,West,271,0.0,0.0,92,0.00,,,0.00,Wunderground v.1.15,2013-02-03 05:36:00,
2013-02-03 00:42:00,13.6,11.7,29.97,West,271,0.0,0.0,92,0.00,,,0.00,Wunderground v.1.15,2013-02-03 05:42:00,
2013-02-03 00:48:00,13.7,11.8,29.97,West,271,0.0,0.0,92,0.00,,,0.00,Wunderground v.1.15,2013-02-03 05:48:00,
2013-02-03 00:54:00,13.9,12.3,29.97,West,271,0.0,0.0,93,0.00,,,0.00,Wunderground v.1.15,2013-02-03 05:54:00,
2013-02-03 01:00:00,14.3,12.6,29.97,West,271,0.0,0.0,93,0.00,,,0.00,Wunderground v.1.15,2013-02-03 06:00:00,
2013-02-03 01:06:00,14.5,12.8,29.97,West,271,0.0,0.0,93,0.00,,,0.00,Wunderground v.1.15,2013-02-03 06:06:00,
2013-02-03 01:12:00,14.6,12.9,29.97,West,271,0.0,0.0,93,0.00,,,0.00,Wunderground v.1.15,2013-02-03 06:12:00,
2013-02-03 01:18:00,14.7,13.0,29.97,West,271,0.0,0.0,93,0.00,,,0.00,Wunderground v.1.15,2013-02-03 06:18:00,
2013-02-03 01:24:00,14.9,13.2,29.97,West,271,0.0,0.0,93,0.00,,,0.00,Wunderground v.1.15,2013-02-03 06:24:00,
2013-02-03 01:30:00,15.0,13.1,29.97,West,271,0.0,0.0,92,0.00,,,0.00,Wunderground v.1.15,2013-02-03 06:30:00,
2013-02-03 01:36:00,14.9,13.0,29.97,West,271,0.0,0.0,92,0.00,,,0.00,Wunderground v.1.15,2013-02-03 06:36:00,
2013-02-03 01:42:00,14.9,13.0,29.97,West,271,0.0,0.0,92,0.00,,,0.00,Wunderground v.1.15,2013-02-03 06:42:00,
2013-02-03 01:48:00,14.8,12.9,29.97,West,271,0.0,0.0,92,0.00,,,0.00,Wunderground v.1.15,2013-02-03 06:48:00,
2013-02-03 01:54:00,14.8,12.9,29.97,West,271,0.0,0.0,92,0.00,,,0.00,Wunderground v.1.15,2013-02-03 06:54:00,
2013-02-03 02:00:00,14.7,12.8,29.97,West,271,0.0,0.0,92,0.00,,,0.00,Wunderground v.1.15,2013-02-03 07:00:00,
2013-02-03 02:06:00,14.6,12.7,29.97,West,271,0.0,0.0,92,0.00,,,0.00,Wunderground v.1.15,2013-02-03 07:06:00,
2013-02-03 02:12:00,14.5,12.6,29.96,WSW,246,0.0,0.0,92,0.00,,,0.00,Wunderground v.1.15,2013-02-03 07:12:00,
2013-02-03 02:18:00,14.4,12.5,29.97,WSW,246,0.0,0.0,92,0.00,,,0.00,Wunderground v.1.15,2013-02-03 07:18:00,
2013-02-03 02:24:00,14.1,12.2,29.97,WSW,246,0.0,0.0,92,0.00,,,0.00,Wunderground v.1.15,2013-02-03 07:24:00,
2013-02-03 02:30:00,13.9,11.8,29.96,SW,226,0.0,0.0,91,0.00,,,0.00,Wunderground v.1.15,2013-02-03 07:30:00,
2013-02-03 02:36:00,13.6,11.7,29.96,SW,226,0.0,0.0,92,0.00,,,0.00,Wunderground v.1.15,2013-02-03 07:36:00,
2013-02-03 02:42:00,13.4,11.3,29.96,SW,226,0.0,0.0,91,0.00,,,0.00,Wunderground v.1.15,2013-02-03 07:42:00,
2013-02-03 02:48:00,13.0,10.9,29.96,SW,226,0.0,0.0,91,0.00,,,0.00,Wunderground v.1.15,2013-02-03 07:48:00,
2013-02-03 02:54:00,12.5,10.4,29.96,SW,226,0.0,0.0,91,0.00,,,0.00,Wunderground v.1.15,2013-02-03 07:54:00,
2013-02-03 03:00:00,12.2,10.1,29.96,SW,226,0.0,0.0,91,0.00,,,0.00,Wunderground v.1.15,2013-02-03 08:00:00,
2013-02-03 03:06:00,12.0,10.1,29.96,SW,226,0.0,0.0,92,0.00,,,0.00,Wunderground v.1.15,2013-02-03 08:06:00,
2013-02-03 03:12:00,12.0,10.1,29.96,SW,226,0.0,0.0,92,0.00,,,0.00,Wunderground v.1.15,2013-02-03 08:12:00,
2013-02-03 03:18:00,12.0,10.1,29.96,SW,226,0.0,0.0,92,0.00,,,0.00,Wunderground v.1.15,2013-02-03 08:18:00,
2013-02-03 03:24:00,11.7,9.8,29.95,SW,226,0.0,0.0,92,0.00,,,0.00,Wunderground v.1.15,2013-02-03 08:24:00,
2013-02-03 03:30:00,11.4,9.5,29.95,SW,226,0.0,0.0,92,0.00,,,0.00,Wunderground v.1.15,2013-02-03 08:30:00,
2013-02-03 03:36:00,11.1,9.2,29.95,SW,226,0.0,0.0,92,0.00,,,0.00,Wunderground v.1.15,2013-02-03 08:36:00,
2013-02-03 03:42:00,11.1,9.2,29.95,SW,226,0.0,0.0,92,0.00,,,0.00,Wunderground v.1.15,2013-02-03 08:42:00,
2013-02-03 03:48:00,10.8,8.7,29.95,SW,226,0.0,0.0,91,0.00,,,0.00,Wunderground v.1.15,2013-02-03 08:48:00,
2013-02-03 03:54:00,10.5,8.4,29.95,SW,226,0.0,0.0,91,0.00,,,0.00,Wunderground v.1.15,2013-02-03 08:54:00,
2013-02-03 04:00:00,10.4,8.5,29.94,SW,226,0.0,0.0,92,0.00,,,0.00,Wunderground v.1.15,2013-02-03 09:00:00,
2013-02-03 04:06:00,10.8,8.9,29.94,SW,226,0.0,0.0,92,0.00,,,0.00,Wunderground v.1.15,2013-02-03 09:06:00,
2013-02-03 04:12:00,11.2,9.6,29.94,SW,226,0.0,0.0,93,0.00,,,0.00,Wunderground v.1.15,2013-02-03 09:12:00,
2013-02-03 04:18:00,11.5,9.9,29.94,SW,226,0.0,0.0,93,0.00,,,0.00,Wunderground v.1.15,2013-02-03 09:18:00,
2013-02-03 04:24:00,11.7,9.8,29.94,SW,226,0.0,0.0,92,0.00,,,0.00,Wunderground v.1.15,2013-02-03 09:24:00,
2013-02-03 04:30:00,11.6,9.7,29.94,SW,226,0.0,0.0,92,0.00,,,0.00,Wunderground v.1.15,2013-02-03 09:30:00,
2013-02-03 04:36:00,11.4,9.5,29.94,SW,226,0.0,0.0,92,0.00,,,0.00,Wunderground v.1.15,2013-02-03 09:36:00,
2013-02-03 04:42:00,11.2,9.1,29.93,SW,226,0.0,0.0,91,0.00,,,0.00,Wunderground v.1.15,2013-02-03 09:42:00,
2013-02-03 04:48:00,10.7,8.6,29.93,SW,226,0.0,0.0,91,0.00,,,0.00,Wunderground v.1.15,2013-02-03 09:48:00,
2013-02-03 04:54:00,10.3,8.0,29.93,SW,226,0.0,0.0,90,0.00,,,0.00,Wunderground v.1.15,2013-02-03 09:54:00,
2013-02-03 05:00:00,9.9,7.8,29.93,SW,226,0.0,0.0,91,0.00,,,0.00,Wunderground v.1.15,2013-02-03 10:00:00,
2013-02-03 05:06:00,10.0,7.9,29.93,SW,226,0.0,0.0,91,0.00,,,0.00,Wunderground v.1.15,2013-02-03 10:06:00,
2013-02-03 05:12:00,10.2,8.3,29.93,SW,226,0.0,0.0,92,0.00,,,0.00,Wunderground v.1.15,2013-02-03 10:12:00,
2013-02-03 05:18:00,10.4,8.5,29.93,SW,226,0.0,0.0,92,0.00,,,0.00,Wunderground v.1.15,2013-02-03 10:18:00,
2013-02-03 05:24:00,10.8,8.9,29.93,SW,226,0.0,0.0,92,0.00,,,0.00,Wunderground v.1.15,2013-02-03 10:24:00,
2013-02-03 05:30:00,10.8,8.9,29.92,SW,226,0.0,0.0,92,0.00,,,0.00,Wunderground v.1.15,2013-02-03 10:30:00,
2013-02-03 05:36:00,10.9,9.0,29.92,WSW,238,0.0,0.0,92,0.00,,,0.00,Wunderground v.1.15,2013-02-03 10:36:00,
2013-02-03 05:42:00,10.6,8.5,29.92,WSW,238,0.0,0.0,91,0.00,,,0.00,Wunderground v.1.15,2013-02-03 10:42:00,
2013-02-03 05:48:00,10.1,7.8,29.92,WSW,238,0.0,0.0,90,0.00,,,0.00,Wunderground v.1.15,2013-02-03 10:48:00,
2013-02-03 05:54:00,10.0,7.9,29.92,SSW,193,0.0,0.0,91,0.00,,,0.00,Wunderground v.1.15,2013-02-03 10:54:00,
2013-02-03 06:00:00,10.1,8.0,29.92,SW,214,0.0,0.0,91,0.00,,,0.00,Wunderground v.1.15,2013-02-03 11:00:00,
2013-02-03 06:06:00,9.9,7.8,29.92,SW,216,0.0,0.0,91,0.00,,,0.00,Wunderground v.1.15,2013-02-03 11:06:00,
2013-02-03 06:12:00,9.5,7.4,29.91,SW,215,0.0,0.0,91,0.00,,,0.00,Wunderground v.1.15,2013-02-03 11:12:00,
2013-02-03 06:18:00,9.1,7.0,29.91,SW,215,0.0,0.0,91,0.00,,,0.00,Wunderground v.1.15,2013-02-03 11:18:00,
2013-02-03 06:24:00,9.0,6.9,29.91,SW,215,0.0,0.0,91,0.00,,,0.00,Wunderground v.1.15,2013-02-03 11:24:00,
2013-02-03 06:30:00,8.5,6.2,29.91,SW,215,0.0,0.0,90,0.00,,,0.00,Wunderground v.1.15,2013-02-03 11:30:00,
2013-02-03 06:36:00,8.1,6.0,29.91,SW,215,0.0,0.0,91,0.00,,,0.00,Wunderground v.1.15,2013-02-03 11:36:00,
2013-02-03 06:42:00,7.7,5.4,29.91,SW,215,0.0,0.0,90,0.00,,,0.00,Wunderground v.1.15,2013-02-03 11:42:00,
2013-02-03 06:48:00,7.4,5.1,29.91,SW,215,0.0,0.0,90,0.00,,,0.00,Wunderground v.1.15,2013-02-03 11:48:00,
2013-02-03 06:54:00,7.1,4.8,29.91,SW,215,0.0,0.0,90,0.00,,,0.00,Wunderground v.1.15,2013-02-03 11:54:00,
2013-02-03 07:00:00,6.7,4.4,29.91,SW,214,0.0,0.0,90,0.00,,,0.00,Wunderground v.1.15,2013-02-03 12:00:00,
2013-02-03 07:06:00,6.6,4.5,29.92,SW,215,0.0,0.0,91,0.00,,,0.00,Wunderground v.1.15,2013-02-03 12:06:00,
2013-02-03 07:12:00,6.3,4.2,29.92,SW,215,0.0,0.0,91,0.00,,,0.00,Wunderground v.1.15,2013-02-03 12:12:00,
2013-02-03 07:18:00,5.8,3.5,29.92,SW,215,0.0,0.0,90,0.00,,,0.00,Wunderground v.1.15,2013-02-03 12:18:00,
2013-02-03 07:24:00,5.2,2.7,29.91,SW,214,0.0,0.0,89,0.00,,,0.00,Wunderground v.1.15,2013-02-03 12:24:00,
2013-02-03 07:30:00,4.9,2.6,29.91,SW,216,0.0,0.0,90,0.00,,,0.00,Wunderground v.1.15,2013-02-03 12:30:00,
2013-02-03 07:36:00,4.9,2.6,29.91,SW,215,0.0,0.0,90,0.00,,,0.00,Wunderground v.1.15,2013-02-03 12:36:00,
2013-02-03 07:42:00,4.8,2.5,29.91,SW,215,0.0,0.0,90,0.00,,,0.00,Wunderground v.1.15,2013-02-03 12:42:00,
2013-02-03 07:48:00,5.3,3.5,29.92,SW,215,0.0,0.0,92,0.00,,,0.00,Wunderground v.1.15,2013-02-03 12:48:00,
2013-02-03 07:54:00,5.8,4.0,29.91,SW,215,0.0,0.0,92,0.00,,,0.00,Wunderground v.1.15,2013-02-03 12:54:00,
2013-02-03 08:00:00,6.0,4.2,29.91,SW,215,0.0,0.0,92,0.00,,,0.00,Wunderground v.1.15,2013-02-03 13:00:00,
2013-02-03 08:06:00,6.5,4.7,29.91,SW,214,0.0,0.0,92,0.00,,,0.00,Wunderground v.1.15,2013-02-03 13:06:00,
2013-02-03 08:12:00,7.6,6.0,29.91,SW,215,0.0,0.0,93,0.00,,,0.00,Wunderground v.1.15,2013-02-03 13:12:00,
2013-02-03 08:18:00,8.3,6.7,29.91,SW,214,0.0,0.0,93,0.00,,,0.00,Wunderground v.1.15,2013-02-03 13:18:00,
2013-02-03 08:24:00,9.5,7.9,29.91,SW,215,0.0,0.0,93,0.00,,,0.00,Wunderground v.1.15,2013-02-03 13:24:00,
2013-02-03 08:30:00,10.6,9.2,29.91,SW,215,0.0,0.0,94,0.00,,,0.00,Wunderground v.1.15,2013-02-03 13:30:00,
2013-02-03 08:36:00,11.5,9.9,29.91,SW,231,0.0,0.0,93,0.00,,,0.00,Wunderground v.1.15,2013-02-03 13:36:00,
2013-02-03 08:42:00,12.3,10.7,29.91,SW,225,0.0,0.0,93,0.00,,,0.00,Wunderground v.1.15,2013-02-03 13:42:00,
2013-02-03 08:48:00,13.0,11.1,29.91,West,263,0.0,0.0,92,0.00,,,0.00,Wunderground v.1.15,2013-02-03 13:48:00,
2013-02-03 08:54:00,13.7,11.8,29.91,SW,214,0.0,0.0,92,0.00,,,0.00,Wunderground v.1.15,2013-02-03 13:54:00,
2013-02-03 09:00:00,14.3,12.2,29.91,SSW,205,0.0,0.0,91,0.00,,,0.00,Wunderground v.1.15,2013-02-03 14:00:00,
2013-02-03 09:06:00,14.8,12.6,29.90,SW,223,0.0,0.0,91,0.00,,,0.00,Wunderground v.1.15,2013-02-03 14:06:00,
2013-02-03 09:12:00,15.2,13.0,29.90,SW,235,0.0,0.0,91,0.00,,,0.00,Wunderground v.1.15,2013-02-03 14:12:00,
2013-02-03 09:18:00,15.5,13.1,29.90,SW,235,0.0,0.0,90,0.00,,,0.00,Wunderground v.1.15,2013-02-03 14:18:00,
2013-02-03 09:24:00,16.0,13.8,29.90,SW,234,0.0,0.0,91,0.00,,,0.00,Wunderground v.1.15,2013-02-03 14:24:00,
2013-02-03 09:30:00,16.4,14.0,29.90,SW,235,0.0,0.0,90,0.00,,,0.00,Wunderground v.1.15,2013-02-03 14:30:00,
2013-02-03 09:36:00,17.2,14.8,29.90,SW,235,0.0,0.0,90,0.00,,,0.00,Wunderground v.1.15,2013-02-03 14:36:00,
2013-02-03 09:42:00,18.1,15.4,29.90,SW,235,0.0,0.0,89,0.00,,,0.00,Wunderground v.1.15,2013-02-03 14:42:00,
2013-02-03 09:48:00,18.6,15.4,29.90,SW,226,0.0,1.0,87,0.00,,,0.00,Wunderground v.1.15,2013-02-03 14:48:00,
2013-02-03 09:54:00,18.6,15.1,29.90,SSW,210,0.0,0.0,86,0.00,,,0.00,Wunderground v.1.15,2013-02-03 14:54:00,
2013-02-03 10:00:00,18.6,14.8,29.89,SW,219,0.0,0.0,85,0.00,,,0.00,Wunderground v.1.15,2013-02-03 15:00:00,
2013-02-03 10:06:00,18.6,14.8,29.89,SSW,195,0.0,0.0,85,0.00,,,0.00,Wunderground v.1.15,2013-02-03 15:06:00,
2013-02-03 10:12:00,18.8,15.0,29.89,SSW,194,0.0,0.0,85,0.00,,,0.00,Wunderground v.1.15,2013-02-03 15:12:00,
2013-02-03 10:18:00,18.9,14.9,29.89,South,181,0.0,1.0,84,0.00,,,0.00,Wunderground v.1.15,2013-02-03 15:18:00,
2013-02-03 10:24:00,19.2,15.2,29.89,ESE,114,0.0,0.0,84,0.00,,,0.00,Wunderground v.1.15,2013-02-03 15:24:00,
2013-02-03 10:30:00,19.6,15.6,29.89,SSW,204,0.0,0.0,84,0.00,,,0.00,Wunderground v.1.15,2013-02-03 15:30:00,
2013-02-03 10:36:00,19.8,15.5,29.89,SSW,200,0.0,1.0,83,0.00,,,0.00,Wunderground v.1.15,2013-02-03 15:36:00,
2013-02-03 10:42:00,20.1,15.8,29.88,SSE,166,0.0,0.0,83,0.00,,,0.00,Wunderground v.1.15,2013-02-03 15:42:00,
2013-02-03 10:48:00,20.5,15.9,29.88,WSW,252,0.0,1.0,82,0.00,,,0.00,Wunderground v.1.15,2013-02-03 15:48:00,
2013-02-03 10:54:00,20.9,16.0,29.88,SSW,197,0.0,1.0,81,0.00,,,0.00,Wunderground v.1.15,2013-02-03 15:54:00,
2013-02-03 11:00:00,21.3,16.4,29.88,WSW,244,0.0,1.0,81,0.00,,,0.00,Wunderground v.1.15,2013-02-03 16:00:00,
2013-02-03 11:06:00,21.5,16.3,29.88,SW,221,0.0,1.0,80,0.00,,,0.00,Wunderground v.1.15,2013-02-03 16:06:00,
2013-02-03 11:12:00,22.0,16.5,29.87,SW,234,0.0,0.0,79,0.00,,,0.00,Wunderground v.1.15,2013-02-03 16:12:00,
2013-02-03 11:18:00,22.6,16.2,29.87,SW,221,0.0,1.0,76,0.00,,,0.00,Wunderground v.1.15,2013-02-03 16:18:00,
2013-02-03 11:24:00,22.6,16.5,29.87,SW,214,0.0,1.0,77,0.00,,,0.00,Wunderground v.1.15,2013-02-03 16:24:00,
2013-02-03 11:30:00,22.9,16.5,29.87,South,188,0.0,1.0,76,0.00,,,0.00,Wunderground v.1.15,2013-02-03 16:30:00,
2013-02-03 11:36:00,23.1,16.7,29.87,SSW,210,0.0,1.0,76,0.00,,,0.00,Wunderground v.1.15,2013-02-03 16:36:00,
2013-02-03 11:42:00,23.5,16.7,29.86,SSW,212,0.0,0.0,75,0.00,,,0.00,Wunderground v.1.15,2013-02-03 16:42:00,
2013-02-03 11:48:00,23.8,17.0,29.86,SE,138,0.0,1.0,75,0.00,,,0.00,Wunderground v.1.15,2013-02-03 16:48:00,
2013-02-03 11:54:00,23.5,16.7,29.86,SW,219,1.0,1.0,75,0.00,,,0.00,Wunderground v.1.15,2013-02-03 16:54:00,
2013-02-03 12:00:00,23.6,16.2,29.86,SW,229,1.0,1.0,73,0.00,,,0.00,Wunderground v.1.15,2013-02-03 17:00:00,
2013-02-03 12:06:00,24.0,16.9,29.85,SW,229,0.0,1.0,74,0.00,,,0.00,Wunderground v.1.15,2013-02-03 17:06:00,
2013-02-03 12:12:00,24.9,17.1,29.85,SW,229,0.0,0.0,72,0.00,,,0.00,Wunderground v.1.15,2013-02-03 17:12:00,
2013-02-03 12:18:00,25.2,16.8,29.85,SSW,201,0.0,0.0,70,0.00,,,0.00,Wunderground v.1.15,2013-02-03 17:18:00,
2013-02-03 12:24:00,25.5,17.1,29.84,SSE,160,0.0,0.0,70,0.00,,,0.00,Wunderground v.1.15,2013-02-03 17:24:00,
2013-02-03 12:30:00,25.5,15.4,29.84,WSW,247,0.0,0.0,65,0.00,,,0.00,Wunderground v.1.15,2013-02-03 17:30:00,
2013-02-03 12:36:00,25.3,15.2,29.84,SSE,162,0.0,0.0,65,0.00,,,0.00,Wunderground v.1.15,2013-02-03 17:36:00,
2013-02-03 12:42:00,25.3,15.9,29.84,SW,218,0.0,3.0,67,0.00,,,0.00,Wunderground v.1.15,2013-02-03 17:42:00,
2013-02-03 12:48:00,24.7,15.3,29.84,SSW,197,1.0,3.0,67,0.00,,,0.00,Wunderground v.1.15,2013-02-03 17:48:00,
2013-02-03 12:54:00,24.8,15.7,29.83,SSW,212,1.0,1.0,68,0.00,,,0.00,Wunderground v.1.15,2013-02-03 17:54:00,
2013-02-03 13:00:00,24.6,14.9,29.83,WSW,245,1.0,1.0,66,0.00,,,0.00,Wunderground v.1.15,2013-02-03 18:00:00,
2013-02-03 13:06:00,24.3,14.6,29.83,WSW,240,1.0,2.0,66,0.00,,,0.00,Wunderground v.1.15,2013-02-03 18:06:00,
2013-02-03 13:12:00,24.2,15.2,29.83,South,186,1.0,1.0,68,0.00,,,0.00,Wunderground v.1.15,2013-02-03 18:12:00,
2013-02-03 13:18:00,24.3,14.6,29.83,WSW,247,1.0,3.0,66,0.00,,,0.00,Wunderground v.1.15,2013-02-03 18:18:00,
2013-02-03 13:24:00,24.3,14.6,29.83,South,188,1.0,2.0,66,0.00,,,0.00,Wunderground v.1.15,2013-02-03 18:24:00,
2013-02-03 13:30:00,24.6,15.2,29.82,WSW,256,1.0,1.0,67,0.00,,,0.00,Wunderground v.1.15,2013-02-03 18:30:00,
2013-02-03 13:36:00,25.2,15.4,29.82,SW,219,0.0,1.0,66,0.00,,,0.00,Wunderground v.1.15,2013-02-03 18:36:00,
2013-02-03 13:42:00,25.0,14.2,29.82,WSW,238,0.0,0.0,63,0.00,,,0.00,Wunderground v.1.15,2013-02-03 18:42:00,
2013-02-03 13:48:00,25.0,14.5,29.81,NNW,347,0.0,0.0,64,0.00,,,0.00,Wunderground v.1.15,2013-02-03 18:48:00,
2013-02-03 13:54:00,25.2,14.4,29.81,WNW,301,0.0,0.0,63,0.00,,,0.00,Wunderground v.1.15,2013-02-03 18:54:00,
2013-02-03 14:00:00,25.3,13.0,29.81,NNE,18,0.0,0.0,59,0.00,,,0.00,Wunderground v.1.15,2013-02-03 19:00:00,
2013-02-03 14:06:00,24.9,13.0,29.80,SW,228,0.0,1.0,60,0.00,,,0.00,Wunderground v.1.15,2013-02-03 19:06:00,
2013-02-03 14:12:00,25.0,13.1,29.80,WSW,237,0.0,0.0,60,0.00,,,0.00,Wunderground v.1.15,2013-02-03 19:12:00,
2013-02-03 14:18:00,25.0,13.1,29.80,NNW,340,0.0,3.0,60,0.00,,,0.00,Wunderground v.1.15,2013-02-03 19:18:00,
2013-02-03 14:24:00,24.8,12.1,29.80,SW,233,0.0,0.0,58,0.00,,,0.00,Wunderground v.1.15,2013-02-03 19:24:00,
2013-02-03 14:30:00,24.7,11.6,29.80,North,355,0.0,0.0,57,0.00,,,0.00,Wunderground v.1.15,2013-02-03 19:30:00,
2013-02-03 14:36:00,24.5,11.8,29.80,NW,319,0.0,0.0,58,0.00,,,0.00,Wunderground v.1.15,2013-02-03 19:36:00,
2013-02-03 14:42:00,24.3,10.8,29.80,North,6,0.0,1.0,56,0.00,,,0.00,Wunderground v.1.15,2013-02-03 19:42:00,
2013-02-03 14:48:00,24.1,11.0,29.80,West,277,0.0,1.0,57,0.00,,,0.00,Wunderground v.1.15,2013-02-03 19:48:00,
2013-02-03 14:54:00,24.0,11.3,29.80,WSW,242,1.0,1.0,58,0.00,,,0.00,Wunderground v.1.15,2013-02-03 19:54:00,
2013-02-03 15:00:00,24.3,11.6,29.80,WSW,251,0.0,2.0,58,0.00,,,0.00,Wunderground v.1.15,2013-02-03 20:00:00,
2013-02-03 15:06:00,24.2,11.9,29.80,WNW,297,0.0,2.0,59,0.00,,,0.00,Wunderground v.1.15,2013-02-03 20:06:00,
2013-02-03 15:12:00,23.7,11.4,29.80,NNE,25,1.0,1.0,59,0.00,,,0.00,Wunderground v.1.15,2013-02-03 20:12:00,
2013-02-03 15:18:00,23.2,11.4,29.80,East,84,1.0,3.0,60,0.00,,,0.00,Wunderground v.1.15,2013-02-03 20:18:00,
2013-02-03 15:24:00,23.7,12.2,29.80,NNW,342,0.0,1.0,61,0.00,,,0.00,Wunderground v.1.15,2013-02-03 20:24:00,
2013-02-03 15:30:00,24.2,11.5,29.80,WSW,241,0.0,1.0,58,0.00,,,0.00,Wunderground v.1.15,2013-02-03 20:30:00,
2013-02-03 15:36:00,24.0,11.3,29.80,SW,229,0.0,1.0,58,0.00,,,0.00,Wunderground v.1.15,2013-02-03 20:36:00,
2013-02-03 15:42:00,24.0,12.5,29.80,NNW,335,0.0,0.0,61,0.00,,,0.00,Wunderground v.1.15,2013-02-03 20:42:00,
2013-02-03 15:48:00,23.8,12.7,29.80,NW,321,0.0,0.0,62,0.00,,,0.00,Wunderground v.1.15,2013-02-03 20:48:00,
2013-02-03 15:54:00,23.9,12.8,29.80,NW,308,0.0,0.0,62,0.00,,,0.00,Wunderground v.1.15,2013-02-03 20:54:00,
2013-02-03 16:00:00,23.7,12.9,29.80,WSW,243,0.0,0.0,63,0.00,,,0.00,Wunderground v.1.15,2013-02-03 21:00:00,
2013-02-03 16:06:00,23.4,13.7,29.80,ENE,67,0.0,0.0,66,0.00,,,0.00,Wunderground v.1.15,2013-02-03 21:06:00,
2013-02-03 16:12:00,23.2,13.2,29.80,SSW,204,0.0,0.0,65,0.00,,,0.00,Wunderground v.1.15,2013-02-03 21:12:00,
2013-02-03 16:18:00,22.9,12.9,29.80,NE,37,0.0,1.0,65,0.00,,,0.00,Wunderground v.1.15,2013-02-03 21:18:00,
2013-02-03 16:24:00,22.6,12.6,29.80,NW,307,0.0,2.0,65,0.00,,,0.00,Wunderground v.1.15,2013-02-03 21:24:00,
2013-02-03 16:30:00,22.4,12.8,29.80,WSW,242,0.0,0.0,66,0.00,,,0.00,Wunderground v.1.15,2013-02-03 21:30:00,
2013-02-03 16:36:00,22.3,12.7,29.81,SSE,153,0.0,1.0,66,0.00,,,0.00,Wunderground v.1.15,2013-02-03 21:36:00,
2013-02-03 16:42:00,22.4,13.4,29.81,South,190,0.0,0.0,68,0.00,,,0.00,Wunderground v.1.15,2013-02-03 21:42:00,
2013-02-03 16:48:00,22.1,13.8,29.81,NNW,330,0.0,1.0,70,0.00,,,0.00,Wunderground v.1.15,2013-02-03 21:48:00,
2013-02-03 16:54:00,21.7,14.1,29.81,NNE,22,0.0,1.0,72,0.00,,,0.00,Wunderground v.1.15,2013-02-03 21:54:00,
2013-02-03 17:00:00,21.5,14.5,29.81,NNW,338,0.0,0.0,74,0.00,,,0.00,Wunderground v.1.15,2013-02-03 22:00:00,
2013-02-03 17:06:00,21.3,14.6,29.81,WSW,248,0.0,1.0,75,0.00,,,0.00,Wunderground v.1.15,2013-02-03 22:06:00,
2013-02-03 17:12:00,21.2,14.5,29.81,SW,226,0.0,0.0,75,0.00,,,0.00,Wunderground v.1.15,2013-02-03 22:12:00,
2013-02-03 17:18:00,21.1,14.7,29.81,WSW,237,0.0,0.0,76,0.00,,,0.00,Wunderground v.1.15,2013-02-03 22:18:00,
2013-02-03 17:24:00,20.9,15.1,29.81,WSW,238,0.0,1.0,78,0.00,,,0.00,Wunderground v.1.15,2013-02-03 22:24:00,
2013-02-03 17:30:00,20.7,14.9,29.82,North,349,0.0,1.0,78,0.00,,,0.00,Wunderground v.1.15,2013-02-03 22:30:00,
2013-02-03 17:36:00,20.6,15.1,29.82,SW,224,0.0,2.0,79,0.00,,,0.00,Wunderground v.1.15,2013-02-03 22:36:00,
2013-02-03 17:42:00,20.5,15.6,29.82,NNE,15,0.0,1.0,81,0.00,,,0.00,Wunderground v.1.15,2013-02-03 22:42:00,
2013-02-03 17:48:00,20.3,15.7,29.82,SW,224,0.0,1.0,82,0.00,,,0.00,Wunderground v.1.15,2013-02-03 22:48:00,
2013-02-03 17:54:00,20.1,15.5,29.82,SW,226,0.0,0.0,82,0.00,,,0.00,Wunderground v.1.15,2013-02-03 22:54:00,
2013-02-03 18:00:00,20.0,15.9,29.83,SW,228,0.0,0.0,84,0.00,,,0.00,Wunderground v.1.15,2013-02-03 23:00:00,
2013-02-03 18:06:00,19.9,16.1,29.83,SSW,212,0.0,0.0,85,0.00,,,0.00,Wunderground v.1.15,2013-02-03 23:06:00,
2013-02-03 18:12:00,19.8,16.3,29.83,SSW,211,0.0,0.0,86,0.00,,,0.00,Wunderground v.1.15,2013-02-03 23:12:00,
2013-02-03 18:18:00,19.6,15.8,29.84,SW,221,0.0,2.0,85,0.00,,,0.00,Wunderground v.1.15,2013-02-03 23:18:00,
2013-02-03 18:24:00,19.5,16.0,29.84,ESE,110,0.0,4.0,86,0.00,,,0.00,Wunderground v.1.15,2013-02-03 23:24:00,
2013-02-03 18:30:00,19.4,15.9,29.84,WSW,248,0.0,0.0,86,0.00,,,0.00,Wunderground v.1.15,2013-02-03 23:30:00,
2013-02-03 18:36:00,19.4,15.6,29.84,SW,231,1.0,1.0,85,0.00,,,0.00,Wunderground v.1.15,2013-02-03 23:36:00,
2013-02-03 18:42:00,19.3,15.3,29.84,SW,230,2.0,2.0,84,0.00,,,0.00,Wunderground v.1.15,2013-02-03 23:42:00,
2013-02-03 18:48:00,19.3,15.3,29.85,WSW,245,1.0,2.0,84,0.00,,,0.00,Wunderground v.1.15,2013-02-03 23:48:00,
2013-02-03 18:54:00,19.3,15.3,29.85,WSW,255,1.0,2.0,84,0.00,,,0.00,Wunderground v.1.15,2013-02-03 23:54:00,
2013-02-03 19:00:00,19.2,15.4,29.85,SW,222,1.0,1.0,85,0.00,,,0.00,Wunderground v.1.15,2013-02-04 00:00:00,
2013-02-03 19:06:00,19.1,15.1,29.85,NW,312,2.0,3.0,84,0.00,,,0.00,Wunderground v.1.15,2013-02-04 00:06:00,
2013-02-03 19:12:00,19.0,15.0,29.85,ESE,108,2.0,2.0,84,0.00,,,0.00,Wunderground v.1.15,2013-02-04 00:12:00,
2013-02-03 19:18:00,18.9,14.9,29.86,SSW,195,1.0,2.0,84,0.00,,,0.00,Wunderground v.1.15,2013-02-04 00:18:00,
2013-02-03 19:24:00,18.7,14.9,29.86,SW,231,1.0,4.0,85,0.00,,,0.00,Wunderground v.1.15,2013-02-04 00:24:00,
2013-02-03 19:30:00,18.6,14.8,29.86,South,169,2.0,2.0,85,0.00,,,0.00,Wunderground v.1.15,2013-02-04 00:30:00,
2013-02-03 19:36:00,18.6,14.8,29.86,WSW,250,1.0,2.0,85,0.00,,,0.00,Wunderground v.1.15,2013-02-04 00:36:00,
2013-02-03 19:42:00,18.6,15.1,29.86,WSW,243,1.0,2.0,86,0.00,,,0.00,Wunderground v.1.15,2013-02-04 00:42:00,
2013-02-03 19:48:00,18.5,15.0,29.86,North,8,1.0,2.0,86,0.00,,,0.00,Wunderground v.1.15,2013-02-04 00:48:00,
2013-02-03 19:54:00,18.4,15.2,29.86,ESE,104,1.0,1.0,87,0.00,,,0.00,Wunderground v.1.15,2013-02-04 00:54:00,
2013-02-03 20:00:00,18.3,15.1,29.86,WSW,248,1.0,3.0,87,0.00,,,0.00,Wunderground v.1.15,2013-02-04 01:00:00,
2013-02-03 20:06:00,18.2,15.0,29.86,SSE,150,1.0,3.0,87,0.00,,,0.00,Wunderground v.1.15,2013-02-04 01:06:00,
2013-02-03 20:12:00,18.0,14.8,29.86,WSW,242,1.0,1.0,87,0.00,,,0.00,Wunderground v.1.15,2013-02-04 01:12:00,
2013-02-03 20:18:00,17.8,14.8,29.86,SW,228,1.0,1.0,88,0.00,,,0.00,Wunderground v.1.15,2013-02-04 01:18:00,
2013-02-03 20:24:00,17.6,14.7,29.86,SW,233,1.0,1.0,88,0.00,,,0.00,Wunderground v.1.15,2013-02-04 01:24:00,
2013-02-03 20:30:00,17.5,14.6,29.86,WSW,256,0.0,0.0,88,0.00,,,0.00,Wunderground v.1.15,2013-02-04 01:30:00,
2013-02-03 20:36:00,17.4,14.2,29.86,SSW,195,0.0,2.0,87,0.00,,,0.00,Wunderground v.1.15,2013-02-04 01:36:00,
2013-02-03 20:42:00,17.3,14.1,29.86,WSW,240,0.0,0.0,87,0.00,,,0.00,Wunderground v.1.15,2013-02-04 01:42:00,
2013-02-03 20:48:00,17.3,14.1,29.87,SW,223,1.0,2.0,87,0.00,,,0.00,Wunderground v.1.15,2013-02-04 01:48:00,
2013-02-03 20:54:00,17.4,14.2,29.87,SSW,212,2.0,3.0,87,0.00,,,0.00,Wunderground v.1.15,2013-02-04 01:54:00,
2013-02-03 21:00:00,17.4,14.2,29.87,WSW,242,1.0,4.0,87,0.00,,,0.00,Wunderground v.1.15,2013-02-04 02:00:00,
2013-02-03 21:06:00,17.4,13.9,29.87,SW,230,2.0,4.0,86,0.00,,,0.00,Wunderground v.1.15,2013-02-04 02:06:00,
2013-02-03 21:12:00,17.3,13.8,29.88,SW,231,2.0,2.0,86,0.00,,,0.00,Wunderground v.1.15,2013-02-04 02:12:00,
2013-02-03 21:18:00,17.3,13.6,29.88,WNW,284,2.0,2.0,85,0.00,,,0.00,Wunderground v.1.15,2013-02-04 02:18:00,
2013-02-03 21:24:00,17.3,13.3,29.88,SSE,162,1.0,3.0,84,0.00,,,0.00,Wunderground v.1.15,2013-02-04 02:24:00,
2013-02-03 21:30:00,17.2,13.2,29.88,West,263,1.0,1.0,84,0.00,,,0.00,Wunderground v.1.15,2013-02-04 02:30:00,
2013-02-03 21:36:00,17.1,13.1,29.88,SW,217,2.0,3.0,84,0.00,,,0.00,Wunderground v.1.15,2013-02-04 02:36:00,
2013-02-03 21:42:00,17.0,12.7,29.88,WSW,242,2.0,3.0,83,0.00,,,0.00,Wunderground v.1.15,2013-02-04 02:42:00,
2013-02-03 21:48:00,16.9,12.4,29.88,SE,143,2.0,7.0,82,0.00,,,0.00,Wunderground v.1.15,2013-02-04 02:48:00,
2013-02-03 21:54:00,16.9,12.4,29.88,SW,231,1.0,3.0,82,0.00,,,0.00,Wunderground v.1.15,2013-02-04 02:54:00,
2013-02-03 22:00:00,16.7,11.9,29.88,West,269,0.0,0.0,81,0.00,,,0.00,Wunderground v.1.15,2013-02-04 03:00:00,
2013-02-03 22:06:00,16.7,11.6,29.88,WSW,255,1.0,6.0,80,0.00,,,0.00,Wunderground v.1.15,2013-02-04 03:06:00,
2013-02-03 22:12:00,16.7,11.3,29.88,West,259,2.0,4.0,79,0.00,,,0.00,Wunderground v.1.15,2013-02-04 03:12:00,
2013-02-03 22:18:00,16.6,11.2,29.88,SW,235,2.0,4.0,79,0.00,,,0.00,Wunderground v.1.15,2013-02-04 03:18:00,
2013-02-03 22:24:00,16.6,11.2,29.88,WNW,285,1.0,3.0,79,0.00,,,0.00,Wunderground v.1.15,2013-02-04 03:24:00,
2013-02-03 22:30:00,16.6,10.9,29.88,ESE,110,2.0,2.0,78,0.00,,,0.00,Wunderground v.1.15,2013-02-04 03:30:00,
2013-02-03 22:36:00,16.6,11.2,29.88,SW,232,2.0,5.0,79,0.00,,,0.00,Wunderground v.1.15,2013-02-04 03:36:00,
2013-02-03 22:42:00,16.5,11.1,29.88,WSW,248,1.0,7.0,79,0.00,,,0.00,Wunderground v.1.15,2013-02-04 03:42:00,
2013-02-03 22:48:00,16.5,11.1,29.88,NW,314,1.0,7.0,79,0.00,,,0.00,Wunderground v.1.15,2013-02-04 03:48:00,
2013-02-03 22:54:00,16.5,11.1,29.88,ENE,68,1.0,3.0,79,0.00,,,0.00,Wunderground v.1.15,2013-02-04 03:54:00,
2013-02-03 23:00:00,16.5,11.1,29.88,West,278,1.0,1.0,79,0.00,,,0.00,Wunderground v.1.15,2013-02-04 04:00:00,
2013-02-03 23:06:00,16.5,11.1,29.88,North,358,2.0,5.0,79,0.00,,,0.00,Wunderground v.1.15,2013-02-04 04:06:00,
2013-02-03 23:12:00,16.6,11.2,29.87,West,263,2.0,4.0,79,0.00,,,0.00,Wunderground v.1.15,2013-02-04 04:12:00,
2013-02-03 23:18:00,16.6,11.2,29.87,SW,235,1.0,4.0,79,0.00,,,0.00,Wunderground v.1.15,2013-02-04 04:18:00,
2013-02-03 23:24:00,16.7,11.6,29.87,WSW,255,2.0,4.0,80,0.00,,,0.00,Wunderground v.1.15,2013-02-04 04:24:00,
2013-02-03 23:30:00,16.7,11.6,29.87,SW,217,2.0,2.0,80,0.00,,,0.00,Wunderground v.1.15,2013-02-04 04:30:00,
2013-02-03 23:36:00,16.7,11.6,29.87,WSW,256,2.0,4.0,80,0.00,,,0.00,Wunderground v.1.15,2013-02-04 04:36:00,
2013-02-03 23:42:00,16.7,11.6,29.87,NW,315,2.0,3.0,80,0.00,,,0.00,Wunderground v.1.15,2013-02-04 04:42:00,
2013-02-03 23:48:00,16.6,11.5,29.87,SSW,201,2.0,3.0,80,0.00,,,0.00,Wunderground v.1.15,2013-02-04 04:48:00,
2013-02-03 23:54:00,16.6,11.5,29.88,NW,304,2.0,3.0,80,0.00,,,0.00,Wunderground v.1.15,2013-02-04 04:54:00,